Time,TemperatureF,DewpointF,PressureIn,WindDirection,WindDirectionDegrees,WindSpeedMPH,WindSpeedGustMPH,Humidity,HourlyPrecipIn,Conditions,Clouds,dailyrainin,SoftwareType,DateUTC
2013-08-06 00:01:00,71.6,64.7,29.87,South,190,11.5,11.5,79,0.00,CLR,,0.00,WeatherDisplay:10.37,2013-08-06 05:01:00,
2013-08-06 00:06:00,71.4,64.5,29.87,SSW,194,11.5,11.5,79,0.00,CLR,,0.00,WeatherDisplay:10.37,2013-08-06 05:06:00,
2013-08-06 00:11:00,71.3,64.8,29.87,SSW,198,10.4,10.4,80,0.00,CLR,,0.00,WeatherDisplay:10.37,2013-08-06 05:11:00,
2013-08-06 00:16:00,71.2,64.7,29.87,SSW,200,6.9,6.9,80,0.00,CLR,,0.00,WeatherDisplay:10.37,2013-08-06 05:16:00,
2013-08-06 00:21:00,71.1,64.6,29.87,SSW,198,9.2,9.2,80,0.00,CLR,,0.00,WeatherDisplay:10.37,2013-08-06 05:21:00,
2013-08-06 00:26:00,71.1,64.6,29.87,SSW,200,11.5,11.5,80,0.00,CLR,,0.00,WeatherDisplay:10.37,2013-08-06 05:26:00,
2013-08-06 00:31:00,71.0,64.5,29.87,SSW,205,6.9,6.9,80,0.00,CLR,,0.00,WeatherDisplay:10.37,2013-08-06 05:31:00,
2013-08-06 00:36:00,70.9,64.8,29.87,SSW,204,7.0,7.0,81,0.00,CLR,,0.00,WeatherDisplay:10.37,2013-08-06 05:36:00,
2013-08-06 00:41:00,70.9,64.8,29.87,SSW,205,11.0,11.0,81,0.00,CLR,,0.00,WeatherDisplay:10.37,2013-08-06 05:41:00,
2013-08-06 00:46:00,70.8,64.7,29.87,SSW,209,12.7,12.7,81,0.00,CLR,,0.00,WeatherDisplay:10.37,2013-08-06 05:46:00,
2013-08-06 00:51:00,70.8,64.7,29.87,SSW,210,11.5,11.5,81,0.00,CLR,,0.00,WeatherDisplay:10.37,2013-08-06 05:51:00,
2013-08-06 00:56:00,70.7,64.9,29.87,SSW,211,10.4,10.4,82,0.00,CLR,,0.00,WeatherDisplay:10.37,2013-08-06 05:56:00,
2013-08-06 01:01:00,70.6,64.8,29.87,SW,216,7.0,7.0,82,0.00,CLR,,0.00,WeatherDisplay:10.37,2013-08-06 06:01:00,
2013-08-06 01:06:00,70.4,64.6,29.87,SW,216,4.6,4.6,82,0.00,CLR,,0.00,WeatherDisplay:10.37,2013-08-06 06:06:00,
2013-08-06 01:11:00,70.2,64.8,29.87,SSW,213,6.9,6.9,83,0.00,CLR,,0.00,WeatherDisplay:10.37,2013-08-06 06:11:00,
2013-08-06 01:16:00,70.1,64.7,29.87,SW,216,5.0,5.0,83,0.00,CLR,,0.00,WeatherDisplay:10.37,2013-08-06 06:16:00,
2013-08-06 01:21:00,70.0,64.9,29.87,SW,216,3.5,3.5,84,0.00,CLR,,0.00,WeatherDisplay:10.37,2013-08-06 06:21:00,
2013-08-06 01:26:00,69.9,64.8,29.87,SW,219,9.2,9.2,84,0.00,CLR,,0.00,WeatherDisplay:10.37,2013-08-06 06:26:00,
2013-08-06 01:31:00,69.8,64.7,29.87,SW,229,3.5,3.5,84,0.00,CLR,,0.00,WeatherDisplay:10.37,2013-08-06 06:31:00,
2013-08-06 01:36:00,69.7,64.6,29.87,SW,229,3.5,3.5,84,0.00,CLR,,0.00,WeatherDisplay:10.37,2013-08-06 06:36:00,
2013-08-06 01:41:00,69.6,64.5,29.88,SW,229,3.5,3.5,84,0.00,CLR,,0.00,WeatherDisplay:10.37,2013-08-06 06:41:00,
2013-08-06 01:46:00,69.6,64.9,29.88,SW,229,4.6,4.6,85,0.00,CLR,,0.00,WeatherDisplay:10.37,2013-08-06 06:46:00,
2013-08-06 01:51:00,69.5,64.8,29.88,SW,229,3.5,3.5,85,0.00,CLR,,0.00,WeatherDisplay:10.37,2013-08-06 06:51:00,
2013-08-06 01:56:00,69.5,64.8,29.88,SW,227,7.0,7.0,85,0.00,CLR,,0.00,WeatherDisplay:10.37,2013-08-06 06:56:00,
2013-08-06 02:01:00,69.4,64.7,29.88,SW,226,3.5,3.5,85,0.00,CLR,,0.00,WeatherDisplay:10.37,2013-08-06 07:01:00,
2013-08-06 02:06:00,69.3,64.9,29.88,SW,226,3.5,3.5,86,0.00,CLR,,0.00,WeatherDisplay:10.37,2013-08-06 07:06:00,
2013-08-06 02:11:00,69.3,64.9,29.87,SW,226,3.5,3.5,86,0.00,CLR,,0.00,WeatherDisplay:10.37,2013-08-06 07:11:00,
2013-08-06 02:16:00,69.3,64.9,29.87,SW,226,3.5,3.5,86,0.00,CLR,,0.00,WeatherDisplay:10.37,2013-08-06 07:16:00,
2013-08-06 02:21:00,69.2,64.8,29.86,SW,226,1.2,0.0,86,0.00,CLR,,0.00,WeatherDisplay:10.37,2013-08-06 07:21:00,
2013-08-06 02:26:00,69.2,64.8,29.86,SW,226,0.0,0.0,86,0.00,CLR,,0.00,WeatherDisplay:10.37,2013-08-06 07:26:00,
2013-08-06 02:31:00,69.1,64.7,29.86,SW,226,2.0,2.0,86,0.00,CLR,,0.00,WeatherDisplay:10.37,2013-08-06 07:31:00,
2013-08-06 02:36:00,69.0,65.0,29.86,SW,226,1.2,1.2,87,0.00,CLR,,0.00,WeatherDisplay:10.37,2013-08-06 07:36:00,
2013-08-06 02:41:00,69.0,65.0,29.86,SW,226,3.5,3.5,87,0.00,CLR,,0.00,WeatherDisplay:10.37,2013-08-06 07:41:00,
2013-08-06 02:46:00,68.9,64.9,29.86,SW,225,5.8,5.8,87,0.00,CLR,,0.00,WeatherDisplay:10.37,2013-08-06 07:46:00,
2013-08-06 02:51:00,68.8,64.8,29.86,SW,224,5.8,5.8,87,0.00,CLR,,0.00,WeatherDisplay:10.37,2013-08-06 07:51:00,
2013-08-06 02:56:00,68.8,65.1,29.85,SW,224,2.3,2.3,88,0.00,CLR,,0.00,WeatherDisplay:10.37,2013-08-06 07:56:00,
2013-08-06 03:01:00,68.8,65.1,29.85,SW,223,4.6,4.6,88,0.00,CLR,,0.00,WeatherDisplay:10.37,2013-08-06 08:01:00,
2013-08-06 03:06:00,68.7,65.0,29.85,SW,223,3.5,3.5,88,0.00,CLR,,0.00,WeatherDisplay:10.37,2013-08-06 08:06:00,
2013-08-06 03:11:00,68.7,65.0,29.85,SW,223,4.6,4.6,88,0.00,CLR,,0.00,WeatherDisplay:10.37,2013-08-06 08:11:00,
2013-08-06 03:16:00,68.6,64.9,29.84,SW,223,3.5,3.5,88,0.00,CLR,,0.00,WeatherDisplay:10.37,2013-08-06 08:16:00,
2013-08-06 03:21:00,68.6,64.9,29.84,SW,223,3.5,3.5,88,0.00,CLR,,0.00,WeatherDisplay:10.37,2013-08-06 08:21:00,
2013-08-06 03:26:00,68.6,64.9,29.84,SW,223,3.5,3.5,88,0.00,CLR,,0.00,WeatherDisplay:10.37,2013-08-06 08:26:00,
2013-08-06 03:31:00,68.6,64.9,29.84,SW,222,3.5,3.5,88,0.00,CLR,,0.00,WeatherDisplay:10.37,2013-08-06 08:31:00,
2013-08-06 03:36:00,68.6,64.9,29.84,SW,222,3.5,3.5,88,0.00,CLR,,0.00,WeatherDisplay:10.37,2013-08-06 08:36:00,
2013-08-06 03:41:00,68.6,64.9,29.83,SW,222,2.3,2.3,88,0.00,CLR,,0.00,WeatherDisplay:10.37,2013-08-06 08:41:00,
2013-08-06 03:46:00,68.6,64.9,29.84,SW,222,3.5,3.5,88,0.00,CLR,,0.00,WeatherDisplay:10.37,2013-08-06 08:46:00,
2013-08-06 03:51:00,68.6,64.9,29.84,SW,222,4.6,4.6,88,0.00,CLR,,0.00,WeatherDisplay:10.37,2013-08-06 08:51:00,
2013-08-06 03:56:00,68.6,65.2,29.84,SW,223,3.5,3.5,89,0.00,CLR,,0.00,WeatherDisplay:10.37,2013-08-06 08:56:00,
2013-08-06 04:01:00,68.6,65.2,29.84,SW,222,6.0,6.0,89,0.00,CLR,,0.00,WeatherDisplay:10.37,2013-08-06 09:01:00,
2013-08-06 04:06:00,68.6,65.2,29.84,SW,221,5.8,5.8,89,0.00,CLR,,0.00,WeatherDisplay:10.37,2013-08-06 09:06:00,
2013-08-06 04:11:00,68.5,65.1,29.83,SW,221,6.0,6.0,89,0.00,CLR,,0.00,WeatherDisplay:10.37,2013-08-06 09:11:00,
2013-08-06 04:16:00,68.5,65.1,29.83,SSW,212,6.9,6.9,89,0.00,CLR,,0.00,WeatherDisplay:10.37,2013-08-06 09:16:00,
2013-08-06 04:21:00,68.5,65.1,29.83,SSW,212,6.9,6.9,89,0.00,CLR,,0.00,WeatherDisplay:10.37,2013-08-06 09:21:00,
2013-08-06 04:26:00,68.5,65.1,29.84,SSW,210,6.9,6.9,89,0.00,CLR,,0.00,WeatherDisplay:10.37,2013-08-06 09:26:00,
2013-08-06 04:31:00,68.4,65.0,29.84,SSW,207,10.4,10.4,89,0.00,CLR,,0.00,WeatherDisplay:10.37,2013-08-06 09:31:00,
2013-08-06 04:36:00,68.4,65.0,29.84,SSW,204,6.9,6.9,89,0.00,CLR,,0.00,WeatherDisplay:10.37,2013-08-06 09:36:00,
2013-08-06 04:41:00,68.4,65.0,29.84,SSW,203,6.9,6.9,89,0.00,CLR,,0.00,WeatherDisplay:10.37,2013-08-06 09:41:00,
2013-08-06 04:46:00,68.4,65.0,29.84,SSW,202,6.9,6.9,89,0.00,CLR,,0.00,WeatherDisplay:10.37,2013-08-06 09:46:00,
2013-08-06 04:51:00,68.4,65.0,29.84,South,188,10.4,10.4,89,0.00,CLR,,0.00,WeatherDisplay:10.37,2013-08-06 09:51:00,
2013-08-06 04:56:00,68.4,64.7,29.84,South,188,10.4,10.4,88,0.00,CLR,,0.00,WeatherDisplay:10.37,2013-08-06 09:56:00,
2013-08-06 05:01:00,68.4,64.7,29.85,SSW,199,10.0,10.0,88,0.00,CLR,,0.00,WeatherDisplay:10.37,2013-08-06 10:01:00,
2013-08-06 05:06:00,68.4,64.7,29.85,SSW,200,10.4,10.4,88,0.00,CLR,,0.00,WeatherDisplay:10.37,2013-08-06 10:06:00,
2013-08-06 05:11:00,68.4,64.7,29.86,SSW,193,6.9,6.9,88,0.00,CLR,,0.00,WeatherDisplay:10.37,2013-08-06 10:11:00,
2013-08-06 05:16:00,68.4,64.7,29.86,SSW,193,8.0,8.0,88,0.00,CLR,,0.00,WeatherDisplay:10.37,2013-08-06 10:16:00,
2013-08-06 05:21:00,68.4,64.7,29.86,SSW,200,4.6,4.6,88,0.00,CLR,,0.00,WeatherDisplay:10.37,2013-08-06 10:21:00,
2013-08-06 05:26:00,68.4,64.7,29.86,SSW,195,10.4,10.4,88,0.00,CLR,,0.00,WeatherDisplay:10.37,2013-08-06 10:26:00,
2013-08-06 05:31:00,68.4,64.7,29.87,SSW,198,6.0,6.0,88,0.00,CLR,,0.00,WeatherDisplay:10.37,2013-08-06 10:31:00,
2013-08-06 05:36:00,68.3,64.6,29.86,SSW,203,11.5,11.5,88,0.00,CLR,,0.00,WeatherDisplay:10.37,2013-08-06 10:36:00,
2013-08-06 05:41:00,68.3,64.6,29.87,SSW,200,6.9,6.9,88,0.00,CLR,,0.00,WeatherDisplay:10.37,2013-08-06 10:41:00,
2013-08-06 05:46:00,68.3,64.6,29.86,SSW,200,7.0,7.0,88,0.00,CLR,,0.00,WeatherDisplay:10.37,2013-08-06 10:46:00,
2013-08-06 05:51:00,68.3,64.9,29.86,SSW,211,5.0,5.0,89,0.00,CLR,,0.00,WeatherDisplay:10.37,2013-08-06 10:51:00,
2013-08-06 05:56:00,68.2,64.8,29.86,SW,226,9.2,9.2,89,0.00,CLR,,0.00,WeatherDisplay:10.37,2013-08-06 10:56:00,
2013-08-06 06:01:00,68.2,64.8,29.86,SSW,211,6.0,6.0,89,0.00,CLR,,0.00,WeatherDisplay:10.37,2013-08-06 11:01:00,
2013-08-06 06:06:00,68.2,64.8,29.87,SW,217,11.5,11.5,89,0.00,CLR,,0.00,WeatherDisplay:10.37,2013-08-06 11:06:00,
2013-08-06 06:11:00,68.1,64.7,29.87,SSW,199,11.5,11.5,89,0.00,CLR,,0.00,WeatherDisplay:10.37,2013-08-06 11:11:00,
2013-08-06 06:16:00,68.0,64.6,29.87,SSW,200,13.8,13.8,89,0.00,CLR,,0.00,WeatherDisplay:10.37,2013-08-06 11:16:00,
2013-08-06 06:21:00,68.0,64.6,29.87,SSW,209,6.9,6.9,89,0.00,CLR,,0.00,WeatherDisplay:10.37,2013-08-06 11:21:00,
2013-08-06 06:26:00,68.0,64.6,29.87,SSW,200,10.4,10.4,89,0.00,CLR,,0.00,WeatherDisplay:10.37,2013-08-06 11:26:00,
2013-08-06 06:31:00,68.0,64.6,29.87,SSW,200,10.4,10.4,89,0.00,CLR,,0.00,WeatherDisplay:10.37,2013-08-06 11:31:00,
2013-08-06 06:36:00,68.1,64.7,29.87,SSW,193,11.5,11.5,89,0.00,CLR,,0.00,WeatherDisplay:10.37,2013-08-06 11:36:00,
2013-08-06 06:41:00,68.2,64.8,29.86,South,186,11.5,11.5,89,0.00,CLR,,0.00,WeatherDisplay:10.37,2013-08-06 11:41:00,
2013-08-06 06:46:00,68.2,64.8,29.87,South,186,11.5,11.5,89,0.00,CLR,,0.00,WeatherDisplay:10.37,2013-08-06 11:46:00,
2013-08-06 06:51:00,68.3,64.9,29.87,South,181,9.2,9.2,89,0.00,CLR,,0.00,WeatherDisplay:10.37,2013-08-06 11:51:00,
2013-08-06 06:56:00,68.3,64.6,29.86,SSW,212,10.4,10.4,88,0.00,CLR,,0.00,WeatherDisplay:10.37,2013-08-06 11:56:00,
2013-08-06 07:01:00,68.3,64.9,29.87,SSW,201,8.0,8.0,89,0.00,CLR,,0.00,WeatherDisplay:10.37,2013-08-06 12:01:00,
2013-08-06 07:06:00,68.4,64.7,29.87,SSW,199,4.6,4.6,88,0.00,CLR,,0.00,WeatherDisplay:10.37,2013-08-06 12:06:00,
2013-08-06 07:11:00,68.5,64.8,29.87,SSW,199,3.5,3.5,88,0.00,CLR,,0.00,WeatherDisplay:10.37,2013-08-06 12:11:00,
2013-08-06 07:16:00,68.6,64.9,29.87,SSW,198,10.4,10.4,88,0.00,CLR,,0.00,WeatherDisplay:10.37,2013-08-06 12:16:00,
2013-08-06 07:21:00,68.6,64.9,29.87,SSW,198,8.1,8.1,88,0.00,CLR,,0.00,WeatherDisplay:10.37,2013-08-06 12:21:00,
2013-08-06 07:26:00,68.6,64.9,29.87,SSW,207,10.4,10.4,88,0.00,CLR,,0.00,WeatherDisplay:10.37,2013-08-06 12:26:00,
2013-08-06 07:31:00,68.6,64.9,29.88,SSW,206,5.8,5.8,88,0.00,CLR,,0.00,WeatherDisplay:10.37,2013-08-06 12:31:00,
2013-08-06 07:36:00,68.8,65.1,29.87,SSW,205,4.6,4.6,88,0.00,CLR,,0.00,WeatherDisplay:10.37,2013-08-06 12:36:00,
2013-08-06 07:41:00,68.9,65.2,29.87,SSW,207,8.0,8.0,88,0.00,CLR,,0.00,WeatherDisplay:10.37,2013-08-06 12:41:00,
2013-08-06 07:46:00,68.9,65.2,29.88,SSW,206,4.6,4.6,88,0.00,CLR,,0.00,WeatherDisplay:10.37,2013-08-06 12:46:00,
2013-08-06 07:51:00,69.0,65.3,29.87,SSW,205,3.5,3.5,88,0.00,CLR,,0.00,WeatherDisplay:10.37,2013-08-06 12:51:00,
2013-08-06 07:56:00,69.1,65.4,29.88,SSW,208,4.6,4.6,88,0.00,CLR,,0.00,WeatherDisplay:10.37,2013-08-06 12:56:00,
2013-08-06 08:01:00,69.2,65.5,29.88,SSW,207,5.8,5.8,88,0.00,CLR,,0.00,WeatherDisplay:10.37,2013-08-06 13:01:00,
2013-08-06 08:06:00,69.4,65.7,29.88,SSW,212,6.9,6.9,88,0.00,CLR,,0.00,WeatherDisplay:10.37,2013-08-06 13:06:00,
2013-08-06 08:11:00,69.5,65.8,29.88,SSW,213,3.5,3.5,88,0.00,CLR,,0.00,WeatherDisplay:10.37,2013-08-06 13:11:00,
2013-08-06 08:16:00,69.4,65.7,29.88,SSW,213,6.9,6.9,88,0.00,CLR,,0.00,WeatherDisplay:10.37,2013-08-06 13:16:00,
2013-08-06 08:21:00,69.3,65.6,29.87,SW,218,10.4,10.4,88,0.00,CLR,,0.00,WeatherDisplay:10.37,2013-08-06 13:21:00,
2013-08-06 08:26:00,69.1,65.4,29.87,SW,218,6.9,6.9,88,0.00,CLR,,0.00,WeatherDisplay:10.37,2013-08-06 13:26:00,
2013-08-06 08:31:00,69.2,65.8,29.87,SW,219,5.0,5.0,89,0.00,CLR,,0.00,WeatherDisplay:10.37,2013-08-06 13:31:00,
2013-08-06 08:36:00,69.2,65.5,29.87,SSW,208,6.9,6.9,88,0.00,CLR,,0.00,WeatherDisplay:10.37,2013-08-06 13:36:00,
2013-08-06 08:41:00,69.2,65.8,29.87,SSW,210,6.9,6.9,89,0.00,CLR,,0.00,WeatherDisplay:10.37,2013-08-06 13:41:00,
2013-08-06 08:46:00,69.2,65.8,29.87,SSW,211,6.9,6.9,89,0.00,CLR,,0.00,WeatherDisplay:10.37,2013-08-06 13:46:00,
2013-08-06 08:51:00,69.3,65.9,29.87,SSW,211,5.8,5.8,89,0.00,CLR,,0.00,WeatherDisplay:10.37,2013-08-06 13:51:00,
2013-08-06 08:56:00,69.4,66.0,29.87,SSW,211,4.6,4.6,89,0.00,CLR,,0.00,WeatherDisplay:10.37,2013-08-06 13:56:00,
2013-08-06 09:01:00,69.4,66.0,29.87,SSW,211,2.3,2.3,89,0.00,CLR,,0.00,WeatherDisplay:10.37,2013-08-06 14:01:00,
2013-08-06 09:06:00,69.5,66.1,29.87,SSW,211,3.5,3.5,89,0.00,CLR,,0.00,WeatherDisplay:10.37,2013-08-06 14:06:00,
2013-08-06 09:11:00,69.6,66.2,29.88,SSW,211,3.5,3.5,89,0.00,CLR,,0.00,WeatherDisplay:10.37,2013-08-06 14:11:00,
2013-08-06 09:16:00,69.8,66.4,29.87,SSW,211,3.0,3.0,89,0.00,CLR,,0.00,WeatherDisplay:10.37,2013-08-06 14:16:00,
2013-08-06 09:21:00,70.0,66.3,29.88,SSW,210,1.2,0.0,88,0.00,CLR,,0.00,WeatherDisplay:10.37,2013-08-06 14:21:00,
2013-08-06 09:26:00,70.1,66.4,29.88,SSW,210,3.5,3.5,88,0.00,CLR,,0.00,WeatherDisplay:10.37,2013-08-06 14:26:00,
2013-08-06 09:31:00,70.3,66.6,29.88,SSW,210,3.5,3.5,88,0.00,CLR,,0.00,WeatherDisplay:10.37,2013-08-06 14:31:00,
2013-08-06 09:36:00,70.2,66.5,29.88,SSW,211,4.6,4.6,88,0.00,CLR,,0.00,WeatherDisplay:10.37,2013-08-06 14:36:00,
2013-08-06 09:41:00,70.1,66.4,29.88,SSW,211,5.0,5.0,88,0.00,CLR,,0.00,WeatherDisplay:10.37,2013-08-06 14:41:00,
2013-08-06 09:46:00,69.9,66.5,29.88,SSW,210,9.0,9.0,89,0.00,CLR,,0.00,WeatherDisplay:10.37,2013-08-06 14:46:00,
2013-08-06 09:51:00,69.8,66.4,29.88,SSW,211,6.9,6.9,89,0.00,CLR,,0.00,WeatherDisplay:10.37,2013-08-06 14:51:00,
2013-08-06 09:56:00,70.0,66.6,29.88,SSW,202,10.4,10.4,89,0.00,CLR,,0.00,WeatherDisplay:10.37,2013-08-06 14:56:00,
2013-08-06 10:01:00,69.8,66.4,29.88,SSW,202,10.4,10.4,89,0.00,CLR,,0.00,WeatherDisplay:10.37,2013-08-06 15:01:00,
2013-08-06 10:06:00,69.8,66.7,29.88,South,189,8.1,8.1,90,0.00,CLR,,0.00,WeatherDisplay:10.37,2013-08-06 15:06:00,
2013-08-06 10:11:00,69.8,66.7,29.88,SSW,198,10.4,10.4,90,0.00,CLR,,0.00,WeatherDisplay:10.37,2013-08-06 15:11:00,
2013-08-06 10:16:00,69.8,66.7,29.89,SSW,197,6.0,6.1,90,0.00,CLR,,0.00,WeatherDisplay:10.37,2013-08-06 15:16:00,
2013-08-06 10:21:00,70.0,66.9,29.89,SSW,192,8.1,8.1,90,0.00,CLR,,0.00,WeatherDisplay:10.37,2013-08-06 15:21:00,
2013-08-06 10:26:00,70.1,67.0,29.89,South,191,4.6,4.6,90,0.00,CLR,,0.00,WeatherDisplay:10.37,2013-08-06 15:26:00,
2013-08-06 10:31:00,70.3,66.9,29.89,SSW,198,3.5,3.5,89,0.00,CLR,,0.00,WeatherDisplay:10.37,2013-08-06 15:31:00,
2013-08-06 10:36:00,70.4,67.0,29.89,SSW,197,10.4,10.4,89,0.00,CLR,,0.00,WeatherDisplay:10.37,2013-08-06 15:36:00,
2013-08-06 10:41:00,70.6,67.2,29.89,SSW,209,5.0,5.0,89,0.00,CLR,,0.00,WeatherDisplay:10.37,2013-08-06 15:41:00,
2013-08-06 10:46:00,70.8,67.4,29.89,SSW,209,5.8,5.8,89,0.00,CLR,,0.00,WeatherDisplay:10.37,2013-08-06 15:46:00,
2013-08-06 10:51:00,71.0,67.6,29.89,SW,229,8.1,8.1,89,0.00,CLR,,0.00,WeatherDisplay:10.37,2013-08-06 15:51:00,
2013-08-06 10:56:00,71.3,67.9,29.88,SW,229,4.6,4.6,89,0.00,CLR,,0.00,WeatherDisplay:10.37,2013-08-06 15:56:00,
2013-08-06 11:01:00,71.5,67.8,29.88,SW,229,5.8,5.8,88,0.00,CLR,,0.00,WeatherDisplay:10.37,2013-08-06 16:01:00,
2013-08-06 11:06:00,71.8,68.1,29.88,SW,227,4.6,4.6,88,0.00,CLR,,0.00,WeatherDisplay:10.37,2013-08-06 16:06:00,
2013-08-06 11:11:00,72.2,68.1,29.88,SW,227,3.5,3.5,87,0.00,CLR,,0.00,WeatherDisplay:10.37,2013-08-06 16:11:00,
2013-08-06 11:16:00,72.5,68.1,29.88,SW,227,3.5,3.5,86,0.00,CLR,,0.00,WeatherDisplay:10.37,2013-08-06 16:16:00,
2013-08-06 11:21:00,72.7,68.3,29.88,SW,227,4.0,4.0,86,0.00,CLR,,0.00,WeatherDisplay:10.37,2013-08-06 16:21:00,
2013-08-06 11:26:00,72.8,68.4,29.88,SW,227,3.0,3.0,86,0.00,CLR,,0.00,WeatherDisplay:10.37,2013-08-06 16:26:00,
2013-08-06 11:31:00,73.0,68.2,29.88,SW,224,6.9,6.9,85,0.00,CLR,,0.00,WeatherDisplay:10.37,2013-08-06 16:31:00,
2013-08-06 11:36:00,73.0,68.6,29.88,SW,225,3.5,3.5,86,0.00,CLR,,0.00,WeatherDisplay:10.37,2013-08-06 16:36:00,
2013-08-06 11:41:00,73.3,68.5,29.88,SW,225,3.0,3.0,85,0.00,CLR,,0.00,WeatherDisplay:10.37,2013-08-06 16:41:00,
2013-08-06 11:46:00,73.6,68.8,29.87,SW,225,1.2,0.0,85,0.00,CLR,,0.00,WeatherDisplay:10.37,2013-08-06 16:46:00,
2013-08-06 11:51:00,74.0,68.9,29.88,SW,225,1.2,0.0,84,0.00,CLR,,0.00,WeatherDisplay:10.37,2013-08-06 16:51:00,
2013-08-06 11:56:00,74.4,68.9,29.88,SW,224,3.5,3.5,83,0.00,CLR,,0.00,WeatherDisplay:10.37,2013-08-06 16:56:00,
2013-08-06 12:01:00,74.6,69.1,29.87,SW,224,3.5,3.5,83,0.00,CLR,,0.00,WeatherDisplay:10.37,2013-08-06 17:01:00,
2013-08-06 12:06:00,75.0,69.5,29.87,SW,224,3.5,3.5,83,0.00,CLR,,0.00,WeatherDisplay:10.37,2013-08-06 17:06:00,
2013-08-06 12:11:00,75.5,69.6,29.87,SW,225,2.3,2.3,82,0.00,CLR,,0.00,WeatherDisplay:10.37,2013-08-06 17:11:00,
2013-08-06 12:16:00,75.8,69.6,29.87,SW,224,3.5,3.5,81,0.00,CLR,,0.00,WeatherDisplay:10.37,2013-08-06 17:16:00,
2013-08-06 12:21:00,75.7,69.5,29.87,WNW,290,5.8,5.8,81,0.00,CLR,,0.00,WeatherDisplay:10.37,2013-08-06 17:21:00,
2013-08-06 12:26:00,75.4,69.5,29.87,WNW,300,3.5,3.5,82,0.00,CLR,,0.00,WeatherDisplay:10.37,2013-08-06 17:26:00,
2013-08-06 12:27:00,75.4,69.5,29.87,WNW,300,4.6,4.6,82,0.00,CLR,,0.00,WeatherDisplay:10.37,2013-08-06 17:27:00,
2013-08-06 12:32:00,75.7,69.8,29.87,WNW,300,3.5,3.5,82,0.00,CLR,,0.00,WeatherDisplay:10.37,2013-08-06 17:32:00,
2013-08-06 12:37:00,75.8,69.6,29.87,WNW,297,3.5,3.5,81,0.00,CLR,,0.00,WeatherDisplay:10.37,2013-08-06 17:37:00,
2013-08-06 12:42:00,75.8,69.6,29.87,WNW,296,9.2,9.2,81,0.00,CLR,,0.00,WeatherDisplay:10.37,2013-08-06 17:42:00,
2013-08-06 12:47:00,75.6,69.7,29.87,WNW,297,4.6,4.6,82,0.00,CLR,,0.00,WeatherDisplay:10.37,2013-08-06 17:47:00,
2013-08-06 12:52:00,75.7,69.5,29.86,WNW,296,4.6,4.6,81,0.00,CLR,,0.00,WeatherDisplay:10.37,2013-08-06 17:52:00,
2013-08-06 12:53:00,75.7,69.5,29.86,WNW,296,3.5,3.5,81,0.00,CLR,,0.00,WeatherDisplay:10.37,2013-08-06 17:53:00,
2013-08-06 12:58:00,75.8,69.9,29.87,West,278,4.0,4.0,82,0.00,CLR,,0.00,WeatherDisplay:10.37,2013-08-06 17:58:00,
2013-08-06 13:03:00,76.1,69.8,29.86,WSW,246,4.0,4.0,81,0.00,CLR,,0.00,WeatherDisplay:10.37,2013-08-06 18:03:00,
2013-08-06 13:08:00,76.4,70.1,29.86,WSW,246,1.2,1.2,81,0.00,CLR,,0.00,WeatherDisplay:10.37,2013-08-06 18:08:00,
2013-08-06 13:13:00,77.1,70.5,29.86,WSW,245,1.2,1.2,80,0.00,CLR,,0.00,WeatherDisplay:10.37,2013-08-06 18:13:00,
2013-08-06 13:18:00,77.7,70.3,29.86,WSW,246,1.2,1.2,78,0.00,CLR,,0.00,WeatherDisplay:10.37,2013-08-06 18:18:00,
2013-08-06 13:23:00,78.4,71.0,29.86,WSW,246,3.5,3.5,78,0.00,CLR,,0.00,WeatherDisplay:10.37,2013-08-06 18:23:00,
2013-08-06 13:28:00,78.8,70.6,29.86,WSW,248,3.5,3.5,76,0.00,CLR,,0.00,WeatherDisplay:10.37,2013-08-06 18:28:00,
2013-08-06 13:33:00,78.9,70.7,29.86,WSW,252,4.6,4.6,76,0.00,CLR,,0.00,WeatherDisplay:10.37,2013-08-06 18:33:00,
2013-08-06 13:38:00,79.1,70.9,29.85,WSW,252,4.0,4.0,76,0.00,CLR,,0.00,WeatherDisplay:10.37,2013-08-06 18:38:00,
2013-08-06 13:43:00,79.4,70.8,29.86,SW,230,6.9,6.9,75,0.00,CLR,,0.00,WeatherDisplay:10.37,2013-08-06 18:43:00,
2013-08-06 13:48:00,79.4,71.2,29.85,SW,236,3.5,3.5,76,0.00,CLR,,0.00,WeatherDisplay:10.37,2013-08-06 18:48:00,
2013-08-06 13:53:00,80.1,71.8,29.85,South,187,9.2,9.2,76,0.00,CLR,,0.00,WeatherDisplay:10.37,2013-08-06 18:53:00,
2013-08-06 13:58:00,80.6,71.5,29.85,SSW,202,7.0,7.0,74,0.00,CLR,,0.00,WeatherDisplay:10.37,2013-08-06 18:58:00,
2013-08-06 14:03:00,80.2,70.8,29.85,SSW,205,2.3,0.0,73,0.00,CLR,,0.00,WeatherDisplay:10.37,2013-08-06 19:03:00,
2013-08-06 14:08:00,79.7,70.7,29.85,SSW,208,10.4,10.4,74,0.00,CLR,,0.00,WeatherDisplay:10.37,2013-08-06 19:08:00,
2013-08-06 14:13:00,79.0,70.4,29.85,SSW,209,3.5,3.5,75,0.00,CLR,,0.00,WeatherDisplay:10.37,2013-08-06 19:13:00,
2013-08-06 14:18:00,79.3,70.7,29.84,SSW,205,4.6,4.6,75,0.00,CLR,,0.00,WeatherDisplay:10.37,2013-08-06 19:18:00,
2013-08-06 14:23:00,79.5,70.9,29.84,SSW,205,1.2,1.2,75,0.00,CLR,,0.00,WeatherDisplay:10.37,2013-08-06 19:23:00,
2013-08-06 14:28:00,79.9,70.9,29.85,SSW,205,3.5,3.5,74,0.00,CLR,,0.00,WeatherDisplay:10.37,2013-08-06 19:28:00,
2013-08-06 14:33:00,80.2,71.6,29.85,SSW,202,3.5,3.5,75,0.00,CLR,,0.00,WeatherDisplay:10.37,2013-08-06 19:33:00,
2013-08-06 14:38:00,80.6,71.5,29.84,SSW,205,3.5,3.5,74,0.00,CLR,,0.00,WeatherDisplay:10.37,2013-08-06 19:38:00,
2013-08-06 14:43:00,80.8,71.3,29.84,SSW,204,1.2,1.2,73,0.00,CLR,,0.00,WeatherDisplay:10.37,2013-08-06 19:43:00,
2013-08-06 14:48:00,81.4,71.5,29.84,SSW,204,3.5,3.5,72,0.00,CLR,,0.00,WeatherDisplay:10.37,2013-08-06 19:48:00,
2013-08-06 14:53:00,81.4,71.1,29.83,SSW,200,3.5,3.5,71,0.00,CLR,,0.00,WeatherDisplay:10.37,2013-08-06 19:53:00,
2013-08-06 14:58:00,81.4,70.7,29.83,SSW,200,3.5,3.5,70,0.00,CLR,,0.00,WeatherDisplay:10.37,2013-08-06 19:58:00,
2013-08-06 15:03:00,81.7,71.0,29.83,SSW,200,0.0,0.0,70,0.00,CLR,,0.00,WeatherDisplay:10.37,2013-08-06 20:03:00,
2013-08-06 15:08:00,82.2,71.0,29.83,SSW,202,3.5,3.5,69,0.00,CLR,,0.00,WeatherDisplay:10.37,2013-08-06 20:08:00,
2013-08-06 15:13:00,82.3,71.1,29.83,SSW,202,1.2,1.2,69,0.00,CLR,,0.00,WeatherDisplay:10.37,2013-08-06 20:13:00,
2013-08-06 15:18:00,82.4,71.2,29.83,SSW,194,4.6,4.6,69,0.00,CLR,,0.00,WeatherDisplay:10.37,2013-08-06 20:18:00,
2013-08-06 15:23:00,81.9,71.2,29.84,SSW,194,2.3,2.3,70,0.00,CLR,,0.00,WeatherDisplay:10.37,2013-08-06 20:23:00,
2013-08-06 15:28:00,81.4,70.7,29.84,SSW,200,4.6,4.6,70,0.00,CLR,,0.00,WeatherDisplay:10.37,2013-08-06 20:28:00,
2013-08-06 15:32:00,81.0,70.7,29.84,South,191,4.0,4.0,71,0.00,CLR,,0.00,WeatherDisplay:10.37,2013-08-06 20:32:00,
2013-08-06 15:37:00,80.7,70.4,29.84,South,182,5.8,5.8,71,0.00,CLR,,0.00,WeatherDisplay:10.37,2013-08-06 20:37:00,
2013-08-06 15:42:00,81.0,70.7,29.83,South,181,4.0,4.0,71,0.00,CLR,,0.00,WeatherDisplay:10.37,2013-08-06 20:42:00,
2013-08-06 15:47:00,81.1,70.8,29.83,South,180,3.5,3.5,71,0.00,CLR,,0.00,WeatherDisplay:10.37,2013-08-06 20:47:00,
2013-08-06 15:52:00,81.2,70.9,29.83,South,174,4.6,4.6,71,0.00,CLR,,0.00,WeatherDisplay:10.37,2013-08-06 20:52:00,
2013-08-06 15:57:00,81.6,71.3,29.83,SSE,148,9.2,9.2,71,0.00,CLR,,0.00,WeatherDisplay:10.37,2013-08-06 20:57:00,
2013-08-06 16:02:00,81.1,71.2,29.83,SE,138,9.2,9.2,72,0.00,CLR,,0.00,WeatherDisplay:10.37,2013-08-06 21:02:00,
2013-08-06 16:07:00,80.8,71.7,29.83,SE,138,6.0,6.0,74,0.00,CLR,,0.00,WeatherDisplay:10.37,2013-08-06 21:07:00,
2013-08-06 16:12:00,81.0,71.5,29.82,SE,126,11.5,11.5,73,0.00,CLR,,0.00,WeatherDisplay:10.37,2013-08-06 21:12:00,
2013-08-06 16:17:00,80.7,71.6,29.82,SSE,155,11.5,11.5,74,0.00,CLR,,0.00,WeatherDisplay:10.37,2013-08-06 21:17:00,
2013-08-06 16:22:00,80.5,71.4,29.83,SE,124,11.5,11.5,74,0.00,CLR,,0.00,WeatherDisplay:10.37,2013-08-06 21:22:00,
2013-08-06 16:27:00,80.5,71.4,29.83,SSE,156,8.1,8.1,74,0.00,CLR,,0.00,WeatherDisplay:10.37,2013-08-06 21:27:00,
2013-08-06 16:32:00,80.4,71.3,29.83,ESE,121,7.0,7.0,74,0.00,CLR,,0.00,WeatherDisplay:10.37,2013-08-06 21:32:00,
2013-08-06 16:37:00,80.5,71.0,29.83,ESE,117,8.1,8.1,73,0.00,CLR,,0.00,WeatherDisplay:10.37,2013-08-06 21:37:00,
2013-08-06 16:42:00,80.7,71.2,29.83,SSE,148,9.2,9.2,73,0.00,CLR,,0.00,WeatherDisplay:10.37,2013-08-06 21:42:00,
2013-08-06 16:47:00,81.2,71.7,29.83,WSW,240,10.4,10.4,73,0.00,CLR,,0.00,WeatherDisplay:10.37,2013-08-06 21:47:00,
2013-08-06 16:52:00,80.9,71.4,29.83,SSW,203,10.4,10.4,73,0.00,CLR,,0.00,WeatherDisplay:10.37,2013-08-06 21:52:00,
2013-08-06 16:57:00,80.6,71.5,29.83,SSW,204,5.8,5.8,74,0.00,CLR,,0.00,WeatherDisplay:10.37,2013-08-06 21:57:00,
2013-08-06 17:02:00,80.8,71.7,29.83,South,183,4.6,4.6,74,0.00,CLR,,0.00,WeatherDisplay:10.37,2013-08-06 22:02:00,
2013-08-06 17:07:00,80.9,72.2,29.83,ESE,115,10.4,10.4,75,0.00,CLR,,0.00,WeatherDisplay:10.37,2013-08-06 22:07:00,
2013-08-06 17:12:00,80.7,71.6,29.82,SE,135,10.4,10.4,74,0.00,CLR,,0.00,WeatherDisplay:10.37,2013-08-06 22:12:00,
2013-08-06 17:17:00,80.7,72.0,29.82,SSE,152,11.5,11.5,75,0.00,CLR,,0.00,WeatherDisplay:10.37,2013-08-06 22:17:00,
2013-08-06 17:22:00,80.9,72.2,29.82,SSE,157,10.4,10.4,75,0.00,CLR,,0.00,WeatherDisplay:10.37,2013-08-06 22:22:00,
2013-08-06 17:27:00,80.9,71.8,29.83,SE,134,9.2,9.2,74,0.00,CLR,,0.00,WeatherDisplay:10.37,2013-08-06 22:27:00,
2013-08-06 17:32:00,80.8,71.7,29.83,South,180,6.9,6.9,74,0.00,CLR,,0.00,WeatherDisplay:10.37,2013-08-06 22:32:00,
2013-08-06 17:37:00,80.9,71.8,29.83,South,171,5.0,5.0,74,0.00,CLR,,0.00,WeatherDisplay:10.37,2013-08-06 22:37:00,
2013-08-06 17:42:00,81.0,71.9,29.83,SE,139,10.4,10.4,74,0.00,CLR,,0.00,WeatherDisplay:10.37,2013-08-06 22:42:00,
2013-08-06 17:47:00,80.8,72.1,29.83,South,172,6.9,6.9,75,0.00,CLR,,0.00,WeatherDisplay:10.37,2013-08-06 22:47:00,
2013-08-06 17:52:00,80.5,72.2,29.83,South,171,12.7,12.7,76,0.00,CLR,,0.00,WeatherDisplay:10.37,2013-08-06 22:52:00,
2013-08-06 17:57:00,80.4,72.5,29.83,SSE,150,11.5,11.5,77,0.00,CLR,,0.00,WeatherDisplay:10.37,2013-08-06 22:57:00,
2013-08-06 18:02:00,80.5,72.6,29.83,SSE,166,5.8,5.8,77,0.00,CLR,,0.00,WeatherDisplay:10.37,2013-08-06 23:02:00,
2013-08-06 18:07:00,80.5,73.0,29.83,South,175,12.7,12.7,78,0.00,CLR,,0.00,WeatherDisplay:10.37,2013-08-06 23:07:00,
2013-08-06 18:12:00,80.4,72.9,29.83,South,172,6.9,6.9,78,0.00,CLR,,0.00,WeatherDisplay:10.37,2013-08-06 23:12:00,
2013-08-06 18:17:00,80.3,72.8,29.83,South,177,10.4,10.4,78,0.00,CLR,,0.00,WeatherDisplay:10.37,2013-08-06 23:17:00,
2013-08-06 18:22:00,79.9,72.4,29.83,SSW,192,13.8,13.8,78,0.00,CLR,,0.00,WeatherDisplay:10.37,2013-08-06 23:22:00,
2013-08-06 18:27:00,79.6,72.5,29.83,South,174,9.2,9.2,79,0.00,CLR,,0.00,WeatherDisplay:10.37,2013-08-06 23:27:00,
2013-08-06 18:32:00,79.4,72.3,29.83,SSE,162,5.8,5.8,79,0.00,CLR,,0.00,WeatherDisplay:10.37,2013-08-06 23:32:00,
2013-08-06 18:37:00,79.2,72.5,29.84,SSE,166,8.1,8.1,80,0.00,CLR,,0.00,WeatherDisplay:10.37,2013-08-06 23:37:00,
2013-08-06 18:42:00,79.2,72.1,29.84,South,183,11.5,11.5,79,0.00,CLR,,0.00,WeatherDisplay:10.37,2013-08-06 23:42:00,
2013-08-06 18:47:00,79.2,72.1,29.83,South,175,5.8,5.8,79,0.00,CLR,,0.00,WeatherDisplay:10.37,2013-08-06 23:47:00,
2013-08-06 18:52:00,79.1,72.0,29.83,SSE,159,6.9,6.9,79,0.00,CLR,,0.00,WeatherDisplay:10.37,2013-08-06 23:52:00,
2013-08-06 18:57:00,79.0,71.9,29.83,South,169,10.4,10.4,79,0.00,CLR,,0.00,WeatherDisplay:10.37,2013-08-06 23:57:00,
2013-08-06 19:02:00,78.9,71.8,29.83,South,181,11.5,11.5,79,0.00,CLR,,0.00,WeatherDisplay:10.37,2013-08-07 00:02:00,
2013-08-06 19:07:00,78.8,71.7,29.83,SSE,157,6.9,6.9,79,0.00,CLR,,0.00,WeatherDisplay:10.37,2013-08-07 00:07:00,
2013-08-06 19:12:00,78.7,72.0,29.83,South,173,9.2,9.2,80,0.00,CLR,,0.00,WeatherDisplay:10.37,2013-08-07 00:12:00,
2013-08-06 19:17:00,78.5,71.8,29.83,South,173,11.5,11.5,80,0.00,CLR,,0.00,WeatherDisplay:10.37,2013-08-07 00:17:00,
2013-08-06 19:22:00,78.4,72.1,29.83,South,178,11.5,11.5,81,0.00,CLR,,0.00,WeatherDisplay:10.37,2013-08-07 00:22:00,
2013-08-06 19:27:00,78.2,71.9,29.82,South,176,12.0,12.0,81,0.00,CLR,,0.00,WeatherDisplay:10.37,2013-08-07 00:27:00,
2013-08-06 19:32:00,78.0,71.7,29.83,South,184,11.5,11.5,81,0.00,CLR,,0.00,WeatherDisplay:10.37,2013-08-07 00:32:00,
2013-08-06 19:37:00,77.9,72.0,29.83,South,184,9.0,9.0,82,0.00,CLR,,0.00,WeatherDisplay:10.37,2013-08-07 00:37:00,
2013-08-06 19:42:00,77.9,72.0,29.83,South,182,4.6,4.7,82,0.00,CLR,,0.00,WeatherDisplay:10.37,2013-08-07 00:42:00,
2013-08-06 19:47:00,77.8,71.9,29.83,South,182,4.0,4.4,82,0.00,CLR,,0.00,WeatherDisplay:10.37,2013-08-07 00:47:00,
2013-08-06 19:52:00,77.8,71.5,29.83,South,185,6.9,6.9,81,0.00,CLR,,0.00,WeatherDisplay:10.37,2013-08-07 00:52:00,
2013-08-06 19:57:00,77.8,71.5,29.83,South,186,3.5,3.5,81,0.00,CLR,,0.00,WeatherDisplay:10.37,2013-08-07 00:57:00,
2013-08-06 20:02:00,77.7,71.8,29.83,South,185,4.6,4.6,82,0.00,CLR,,0.00,WeatherDisplay:10.37,2013-08-07 01:02:00,
2013-08-06 20:07:00,77.6,71.7,29.83,South,188,4.6,4.6,82,0.00,CLR,,0.00,WeatherDisplay:10.37,2013-08-07 01:07:00,
2013-08-06 20:12:00,77.4,71.5,29.83,South,188,4.6,4.6,82,0.00,CLR,,0.00,WeatherDisplay:10.37,2013-08-07 01:12:00,
2013-08-06 20:17:00,77.3,71.4,29.83,South,188,4.6,4.6,82,0.00,CLR,,0.00,WeatherDisplay:10.37,2013-08-07 01:17:00,
2013-08-06 20:22:00,77.2,71.3,29.83,South,188,3.5,3.5,82,0.00,CLR,,0.00,WeatherDisplay:10.37,2013-08-07 01:22:00,
2013-08-06 20:27:00,77.1,71.2,29.84,South,188,3.5,3.5,82,0.00,CLR,,0.00,WeatherDisplay:10.37,2013-08-07 01:27:00,
2013-08-06 20:32:00,77.0,71.4,29.84,South,188,3.5,3.5,83,0.00,CLR,,0.00,WeatherDisplay:10.37,2013-08-07 01:32:00,
2013-08-06 20:37:00,76.8,71.2,29.83,South,188,0.0,0.0,83,0.00,CLR,,0.00,WeatherDisplay:10.37,2013-08-07 01:37:00,
2013-08-06 20:42:00,76.7,71.1,29.84,South,188,2.3,2.3,83,0.00,CLR,,0.00,WeatherDisplay:10.37,2013-08-07 01:42:00,
2013-08-06 20:47:00,76.6,71.4,29.84,South,188,2.3,2.3,84,0.00,CLR,,0.00,WeatherDisplay:10.37,2013-08-07 01:47:00,
2013-08-06 20:52:00,76.5,71.3,29.84,South,188,3.5,3.5,84,0.00,CLR,,0.00,WeatherDisplay:10.37,2013-08-07 01:52:00,
2013-08-06 20:57:00,76.3,71.1,29.83,South,187,3.5,3.5,84,0.00,CLR,,0.00,WeatherDisplay:10.37,2013-08-07 01:57:00,
2013-08-06 21:02:00,76.1,70.9,29.84,South,186,4.0,4.0,84,0.00,CLR,,0.00,WeatherDisplay:10.37,2013-08-07 02:02:00,
2013-08-06 21:07:00,76.0,71.2,29.84,South,185,5.0,5.0,85,0.00,CLR,,0.00,WeatherDisplay:10.37,2013-08-07 02:07:00,
2013-08-06 21:12:00,75.8,71.0,29.84,South,185,3.5,3.5,85,0.00,CLR,,0.00,WeatherDisplay:10.37,2013-08-07 02:12:00,
2013-08-06 21:17:00,75.6,71.1,29.84,South,185,3.5,3.5,86,0.00,CLR,,0.00,WeatherDisplay:10.37,2013-08-07 02:17:00,
2013-08-06 21:22:00,75.5,71.0,29.84,South,186,2.3,2.3,86,0.00,CLR,,0.00,WeatherDisplay:10.37,2013-08-07 02:22:00,
2013-08-06 21:27:00,75.4,70.9,29.84,South,185,3.5,3.5,86,0.00,CLR,,0.00,WeatherDisplay:10.37,2013-08-07 02:27:00,
2013-08-06 21:32:00,75.2,70.7,29.84,South,184,4.6,4.6,86,0.00,CLR,,0.00,WeatherDisplay:10.37,2013-08-07 02:32:00,
2013-08-06 21:37:00,75.1,71.0,29.84,South,185,3.5,3.5,87,0.00,CLR,,0.00,WeatherDisplay:10.37,2013-08-07 02:37:00,
2013-08-06 21:42:00,74.9,70.8,29.85,South,185,2.3,2.3,87,0.00,CLR,,0.00,WeatherDisplay:10.37,2013-08-07 02:42:00,
2013-08-06 21:47:00,74.8,70.7,29.85,South,185,3.5,3.5,87,0.00,CLR,,0.00,WeatherDisplay:10.37,2013-08-07 02:47:00,
2013-08-06 21:52:00,74.7,70.9,29.85,South,185,3.5,3.5,88,0.00,CLR,,0.00,WeatherDisplay:10.37,2013-08-07 02:52:00,
2013-08-06 21:57:00,74.6,70.8,29.85,South,185,3.5,3.5,88,0.00,CLR,,0.00,WeatherDisplay:10.37,2013-08-07 02:57:00,
2013-08-06 22:02:00,74.5,70.7,29.85,South,185,2.3,2.3,88,0.00,CLR,,0.00,WeatherDisplay:10.37,2013-08-07 03:02:00,
2013-08-06 22:07:00,74.5,70.7,29.85,South,185,3.5,3.5,88,0.00,CLR,,0.00,WeatherDisplay:10.37,2013-08-07 03:07:00,
2013-08-06 22:12:00,74.5,71.0,29.85,South,185,3.5,3.5,89,0.00,CLR,,0.00,WeatherDisplay:10.37,2013-08-07 03:12:00,
2013-08-06 22:17:00,74.4,70.9,29.85,South,185,4.6,4.6,89,0.00,CLR,,0.00,WeatherDisplay:10.37,2013-08-07 03:17:00,
2013-08-06 22:22:00,74.3,70.8,29.85,South,185,2.3,2.3,89,0.00,CLR,,0.00,WeatherDisplay:10.37,2013-08-07 03:22:00,
2013-08-06 22:27:00,74.3,70.8,29.85,South,185,3.5,3.5,89,0.00,CLR,,0.00,WeatherDisplay:10.37,2013-08-07 03:27:00,
2013-08-06 22:28:00,74.2,70.7,29.85,South,185,3.5,3.5,89,0.00,CLR,,0.00,WeatherDisplay:10.37,2013-08-07 03:28:00,
2013-08-06 22:33:00,74.2,70.7,29.85,South,185,1.2,1.2,89,0.00,CLR,,0.00,WeatherDisplay:10.37,2013-08-07 03:33:00,
2013-08-06 22:38:00,74.2,71.1,29.85,South,185,2.3,2.3,90,0.00,CLR,,0.00,WeatherDisplay:10.37,2013-08-07 03:38:00,
2013-08-06 22:43:00,74.2,71.1,29.85,South,185,2.3,2.3,90,0.00,CLR,,0.00,WeatherDisplay:10.37,2013-08-07 03:43:00,
2013-08-06 22:48:00,74.2,71.1,29.85,South,185,3.5,3.5,90,0.00,CLR,,0.00,WeatherDisplay:10.37,2013-08-07 03:48:00,
2013-08-06 22:53:00,74.2,71.1,29.85,South,185,2.3,2.3,90,0.00,CLR,,0.00,WeatherDisplay:10.37,2013-08-07 03:53:00,
2013-08-06 22:58:00,74.2,71.1,29.85,South,185,2.3,2.3,90,0.00,CLR,,0.00,WeatherDisplay:10.37,2013-08-07 03:58:00,
2013-08-06 23:01:00,74.3,71.2,29.85,South,184,3.5,3.5,90,0.00,CLR,,0.00,WeatherDisplay:10.37,2013-08-07 04:01:00,
2013-08-06 23:06:00,74.3,71.2,29.85,South,185,3.5,3.5,90,0.00,CLR,,0.00,WeatherDisplay:10.37,2013-08-07 04:06:00,
2013-08-06 23:11:00,74.3,71.2,29.85,South,185,4.6,4.6,90,0.00,CLR,,0.00,WeatherDisplay:10.37,2013-08-07 04:11:00,
2013-08-06 23:16:00,74.3,71.2,29.85,South,185,3.5,3.5,90,0.00,CLR,,0.00,WeatherDisplay:10.37,2013-08-07 04:16:00,
2013-08-06 23:21:00,74.3,71.2,29.85,South,185,1.2,1.2,90,0.00,CLR,,0.00,WeatherDisplay:10.37,2013-08-07 04:21:00,
2013-08-06 23:26:00,74.3,71.2,29.85,South,185,3.5,3.5,90,0.00,CLR,,0.00,WeatherDisplay:10.37,2013-08-07 04:26:00,
2013-08-06 23:31:00,74.2,71.1,29.85,South,186,3.5,3.5,90,0.00,CLR,,0.00,WeatherDisplay:10.37,2013-08-07 04:31:00,
2013-08-06 23:36:00,74.2,71.1,29.85,South,185,3.5,3.5,90,0.00,CLR,,0.00,WeatherDisplay:10.37,2013-08-07 04:36:00,
2013-08-06 23:41:00,74.1,71.0,29.85,South,185,1.2,1.2,90,0.00,CLR,,0.00,WeatherDisplay:10.37,2013-08-07 04:41:00,
2013-08-06 23:46:00,74.1,71.0,29.85,South,185,2.3,2.3,90,0.00,CLR,,0.00,WeatherDisplay:10.37,2013-08-07 04:46:00,
2013-08-06 23:51:00,74.1,71.0,29.85,South,185,3.5,3.5,90,0.00,CLR,,0.00,WeatherDisplay:10.37,2013-08-07 04:51:00,
2013-08-06 23:56:00,74.1,71.0,29.85,South,185,2.3,2.3,90,0.00,CLR,,0.00,WeatherDisplay:10.37,2013-08-07 04:56:00,